sensor_id;sensor_type;location;lat;lon;timestamp;P1;durP1;ratioP1;P2;durP2;ratioP2
29916;SDS011;16786;49.466;11.068;2022-11-15T00:01:48;14.02;;;8.85;;
29916;SDS011;16786;49.466;11.068;2022-11-15T00:04:34;15.75;;;8.90;;
29916;SDS011;16786;49.466;11.068;2022-11-15T00:07:20;11.77;;;8.48;;
29916;SDS011;16786;49.466;11.068;2022-11-15T00:10:27;12.63;;;8.80;;
29916;SDS011;16786;49.466;11.068;2022-11-15T00:13:13;12.55;;;8.57;;
29916;SDS011;16786;49.466;11.068;2022-11-15T00:16:00;13.57;;;8.32;;
29916;SDS011;16786;49.466;11.068;2022-11-15T00:18:47;12.30;;;7.93;;
29916;SDS011;16786;49.466;11.068;2022-11-15T00:21:35;14.07;;;8.27;;
29916;SDS011;16786;49.466;11.068;2022-11-15T00:24:21;11.50;;;8.02;;
29916;SDS011;16786;49.466;11.068;2022-11-15T00:27:07;12.65;;;8.00;;
29916;SDS011;16786;49.466;11.068;2022-11-15T00:29:53;13.30;;;8.52;;
29916;SDS011;16786;49.466;11.068;2022-11-15T00:32:39;13.48;;;9.30;;
29916;SDS011;16786;49.466;11.068;2022-11-15T00:35:24;12.35;;;8.43;;
29916;SDS011;16786;49.466;11.068;2022-11-15T00:38:10;13.45;;;9.00;;
29916;SDS011;16786;49.466;11.068;2022-11-15T00:40:57;13.05;;;8.75;;
29916;SDS011;16786;49.466;11.068;2022-11-15T00:43:43;13.60;;;8.60;;
29916;SDS011;16786;49.466;11.068;2022-11-15T00:46:29;16.38;;;9.05;;
29916;SDS011;16786;49.466;11.068;2022-11-15T00:49:14;15.25;;;9.30;;
29916;SDS011;16786;49.466;11.068;2022-11-15T00:52:00;15.75;;;8.88;;
29916;SDS011;16786;49.466;11.068;2022-11-15T00:54:46;13.40;;;8.82;;
29916;SDS011;16786;49.466;11.068;2022-11-15T00:57:32;13.77;;;8.20;;
29916;SDS011;16786;49.466;11.068;2022-11-15T01:00:18;14.18;;;8.35;;
29916;SDS011;16786;49.466;11.068;2022-11-15T01:03:04;13.10;;;8.55;;
29916;SDS011;16786;49.466;11.068;2022-11-15T01:05:49;14.02;;;9.27;;
29916;SDS011;16786;49.466;11.068;2022-11-15T01:08:36;16.27;;;10.02;;
29916;SDS011;16786;49.466;11.068;2022-11-15T01:11:22;16.27;;;9.13;;
29916;SDS011;16786;49.466;11.068;2022-11-15T01:14:08;11.50;;;7.95;;
29916;SDS011;16786;49.466;11.068;2022-11-15T01:16:54;12.13;;;8.63;;
29916;SDS011;16786;49.466;11.068;2022-11-15T01:19:40;13.68;;;9.25;;
29916;SDS011;16786;49.466;11.068;2022-11-15T01:22:26;12.70;;;8.75;;
29916;SDS011;16786;49.466;11.068;2022-11-15T01:25:12;13.43;;;8.68;;
29916;SDS011;16786;49.466;11.068;2022-11-15T01:27:58;17.10;;;9.95;;
29916;SDS011;16786;49.466;11.068;2022-11-15T01:30:45;13.20;;;8.82;;
29916;SDS011;16786;49.466;11.068;2022-11-15T01:33:33;14.70;;;10.18;;
29916;SDS011;16786;49.466;11.068;2022-11-15T01:36:21;18.30;;;9.70;;
29916;SDS011;16786;49.466;11.068;2022-11-15T01:39:08;14.25;;;9.10;;
29916;SDS011;16786;49.466;11.068;2022-11-15T01:41:54;13.20;;;8.93;;
29916;SDS011;16786;49.466;11.068;2022-11-15T01:44:42;13.75;;;9.15;;
29916;SDS011;16786;49.466;11.068;2022-11-15T01:47:32;11.77;;;8.45;;
29916;SDS011;16786;49.466;11.068;2022-11-15T01:50:24;12.87;;;8.73;;
29916;SDS011;16786;49.466;11.068;2022-11-15T01:53:15;12.93;;;8.95;;
29916;SDS011;16786;49.466;11.068;2022-11-15T01:56:05;13.80;;;9.82;;
29916;SDS011;16786;49.466;11.068;2022-11-15T01:58:53;15.53;;;8.57;;
29916;SDS011;16786;49.466;11.068;2022-11-15T02:01:42;14.57;;;9.20;;
29916;SDS011;16786;49.466;11.068;2022-11-15T02:04:29;13.93;;;9.40;;
29916;SDS011;16786;49.466;11.068;2022-11-15T02:07:18;14.63;;;8.68;;
29916;SDS011;16786;49.466;11.068;2022-11-15T02:10:10;13.52;;;9.20;;
29916;SDS011;16786;49.466;11.068;2022-11-15T02:13:02;13.15;;;9.07;;
29916;SDS011;16786;49.466;11.068;2022-11-15T02:16:24;14.00;;;9.73;;
29916;SDS011;16786;49.466;11.068;2022-11-15T02:22:34;12.45;;;8.68;;
29916;SDS011;16786;49.466;11.068;2022-11-15T02:31:45;12.55;;;9.15;;
29916;SDS011;16786;49.466;11.068;2022-11-15T02:37:47;12.65;;;8.63;;
29916;SDS011;16786;49.466;11.068;2022-11-15T02:44:06;13.77;;;8.13;;
29916;SDS011;16786;49.466;11.068;2022-11-15T02:47:13;12.50;;;9.05;;
29916;SDS011;16786;49.466;11.068;2022-11-15T02:50:10;17.80;;;9.18;;
29916;SDS011;16786;49.466;11.068;2022-11-15T02:52:57;14.00;;;9.35;;
29916;SDS011;16786;49.466;11.068;2022-11-15T02:55:44;12.77;;;8.95;;
29916;SDS011;16786;49.466;11.068;2022-11-15T02:58:54;12.73;;;8.57;;
29916;SDS011;16786;49.466;11.068;2022-11-15T03:09:04;14.25;;;8.95;;
29916;SDS011;16786;49.466;11.068;2022-11-15T03:11:44;14.82;;;9.18;;
29916;SDS011;16786;49.466;11.068;2022-11-15T03:14:42;14.07;;;8.82;;
29916;SDS011;16786;49.466;11.068;2022-11-15T03:17:48;12.95;;;9.43;;
29916;SDS011;16786;49.466;11.068;2022-11-15T03:20:41;12.38;;;7.97;;
29916;SDS011;16786;49.466;11.068;2022-11-15T03:23:29;13.32;;;9.57;;
29916;SDS011;16786;49.466;11.068;2022-11-15T03:26:17;14.27;;;8.98;;
29916;SDS011;16786;49.466;11.068;2022-11-15T03:29:11;14.45;;;8.82;;
29916;SDS011;16786;49.466;11.068;2022-11-15T03:32:12;12.05;;;8.63;;
29916;SDS011;16786;49.466;11.068;2022-11-15T03:35:08;12.35;;;8.55;;
29916;SDS011;16786;49.466;11.068;2022-11-15T03:41:05;12.27;;;8.55;;
29916;SDS011;16786;49.466;11.068;2022-11-15T03:50:19;13.48;;;8.63;;
29916;SDS011;16786;49.466;11.068;2022-11-15T03:53:07;13.73;;;9.05;;
29916;SDS011;16786;49.466;11.068;2022-11-15T03:55:53;13.02;;;8.30;;
29916;SDS011;16786;49.466;11.068;2022-11-15T03:58:39;13.35;;;8.93;;
29916;SDS011;16786;49.466;11.068;2022-11-15T04:01:25;12.00;;;8.50;;
29916;SDS011;16786;49.466;11.068;2022-11-15T04:04:11;13.10;;;8.27;;
29916;SDS011;16786;49.466;11.068;2022-11-15T04:06:57;11.73;;;7.95;;
29916;SDS011;16786;49.466;11.068;2022-11-15T04:09:43;12.65;;;8.32;;
29916;SDS011;16786;49.466;11.068;2022-11-15T04:12:47;13.13;;;8.57;;
29916;SDS011;16786;49.466;11.068;2022-11-15T04:15:33;10.98;;;8.02;;
29916;SDS011;16786;49.466;11.068;2022-11-15T04:18:19;10.63;;;7.80;;
29916;SDS011;16786;49.466;11.068;2022-11-15T04:21:05;14.90;;;8.00;;
29916;SDS011;16786;49.466;11.068;2022-11-15T04:24:12;13.07;;;7.88;;
29916;SDS011;16786;49.466;11.068;2022-11-15T04:26:58;14.00;;;7.88;;
29916;SDS011;16786;49.466;11.068;2022-11-15T04:29:44;11.75;;;8.23;;
29916;SDS011;16786;49.466;11.068;2022-11-15T04:32:30;10.25;;;7.85;;
29916;SDS011;16786;49.466;11.068;2022-11-15T04:35:16;11.95;;;8.02;;
29916;SDS011;16786;49.466;11.068;2022-11-15T04:38:02;10.50;;;7.57;;
29916;SDS011;16786;49.466;11.068;2022-11-15T04:40:49;13.32;;;7.55;;
29916;SDS011;16786;49.466;11.068;2022-11-15T04:43:35;12.65;;;7.85;;
29916;SDS011;16786;49.466;11.068;2022-11-15T04:46:21;15.25;;;8.88;;
29916;SDS011;16786;49.466;11.068;2022-11-15T04:49:09;12.20;;;8.27;;
29916;SDS011;16786;49.466;11.068;2022-11-15T04:51:54;11.85;;;7.60;;
29916;SDS011;16786;49.466;11.068;2022-11-15T04:54:40;10.75;;;7.50;;
29916;SDS011;16786;49.466;11.068;2022-11-15T04:57:28;10.55;;;7.22;;
29916;SDS011;16786;49.466;11.068;2022-11-15T05:00:14;10.82;;;7.43;;
29916;SDS011;16786;49.466;11.068;2022-11-15T05:03:02;11.60;;;7.93;;
29916;SDS011;16786;49.466;11.068;2022-11-15T05:06:07;13.23;;;8.27;;
29916;SDS011;16786;49.466;11.068;2022-11-15T05:08:53;11.73;;;7.88;;
29916;SDS011;16786;49.466;11.068;2022-11-15T05:11:40;12.13;;;8.27;;
29916;SDS011;16786;49.466;11.068;2022-11-15T05:14:26;10.85;;;7.63;;
29916;SDS011;16786;49.466;11.068;2022-11-15T05:17:12;11.35;;;7.35;;
29916;SDS011;16786;49.466;11.068;2022-11-15T05:19:58;12.35;;;7.72;;
29916;SDS011;16786;49.466;11.068;2022-11-15T05:22:43;12.60;;;7.82;;
29916;SDS011;16786;49.466;11.068;2022-11-15T05:25:29;14.50;;;7.93;;
29916;SDS011;16786;49.466;11.068;2022-11-15T05:28:15;13.32;;;8.15;;
29916;SDS011;16786;49.466;11.068;2022-11-15T05:31:05;12.43;;;7.55;;
29916;SDS011;16786;49.466;11.068;2022-11-15T05:36:41;13.45;;;8.25;;
29916;SDS011;16786;49.466;11.068;2022-11-15T05:39:28;17.83;;;9.32;;
29916;SDS011;16786;49.466;11.068;2022-11-15T05:42:15;15.02;;;8.27;;
29916;SDS011;16786;49.466;11.068;2022-11-15T05:45:02;14.13;;;8.60;;
29916;SDS011;16786;49.466;11.068;2022-11-15T05:47:50;16.00;;;8.70;;
29916;SDS011;16786;49.466;11.068;2022-11-15T05:50:38;12.55;;;7.90;;
29916;SDS011;16786;49.466;11.068;2022-11-15T05:53:26;15.27;;;8.50;;
29916;SDS011;16786;49.466;11.068;2022-11-15T05:56:12;16.33;;;9.40;;
29916;SDS011;16786;49.466;11.068;2022-11-15T05:58:59;14.60;;;8.60;;
29916;SDS011;16786;49.466;11.068;2022-11-15T06:01:46;14.32;;;8.43;;
29916;SDS011;16786;49.466;11.068;2022-11-15T06:04:32;13.68;;;8.00;;
29916;SDS011;16786;49.466;11.068;2022-11-15T06:07:18;14.32;;;8.57;;
29916;SDS011;16786;49.466;11.068;2022-11-15T06:10:04;11.95;;;7.28;;
29916;SDS011;16786;49.466;11.068;2022-11-15T06:13:00;17.60;;;8.43;;
29916;SDS011;16786;49.466;11.068;2022-11-15T06:15:47;13.90;;;8.43;;
29916;SDS011;16786;49.466;11.068;2022-11-15T06:18:34;14.40;;;8.00;;
29916;SDS011;16786;49.466;11.068;2022-11-15T06:21:20;20.60;;;11.60;;
29916;SDS011;16786;49.466;11.068;2022-11-15T06:24:07;14.77;;;8.55;;
29916;SDS011;16786;49.466;11.068;2022-11-15T06:26:52;14.13;;;8.15;;
29916;SDS011;16786;49.466;11.068;2022-11-15T06:29:38;13.65;;;7.38;;
29916;SDS011;16786;49.466;11.068;2022-11-15T06:32:24;14.35;;;7.50;;
29916;SDS011;16786;49.466;11.068;2022-11-15T06:35:10;12.95;;;8.48;;
29916;SDS011;16786;49.466;11.068;2022-11-15T06:37:59;13.73;;;7.90;;
29916;SDS011;16786;49.466;11.068;2022-11-15T06:40:50;13.07;;;8.00;;
29916;SDS011;16786;49.466;11.068;2022-11-15T06:43:37;21.05;;;8.48;;
29916;SDS011;16786;49.466;11.068;2022-11-15T06:46:23;16.80;;;8.15;;
29916;SDS011;16786;49.466;11.068;2022-11-15T06:49:09;15.93;;;7.80;;
29916;SDS011;16786;49.466;11.068;2022-11-15T06:51:55;13.60;;;7.60;;
29916;SDS011;16786;49.466;11.068;2022-11-15T06:54:41;12.45;;;8.30;;
29916;SDS011;16786;49.466;11.068;2022-11-15T06:57:27;15.30;;;8.13;;
29916;SDS011;16786;49.466;11.068;2022-11-15T07:00:13;13.65;;;7.10;;
29916;SDS011;16786;49.466;11.068;2022-11-15T07:02:59;13.45;;;7.65;;
29916;SDS011;16786;49.466;11.068;2022-11-15T07:05:53;13.65;;;7.35;;
29916;SDS011;16786;49.466;11.068;2022-11-15T07:08:40;13.18;;;7.78;;
29916;SDS011;16786;49.466;11.068;2022-11-15T07:11:27;14.75;;;7.70;;
29916;SDS011;16786;49.466;11.068;2022-11-15T07:14:13;13.57;;;7.93;;
29916;SDS011;16786;49.466;11.068;2022-11-15T07:16:59;14.52;;;7.60;;
29916;SDS011;16786;49.466;11.068;2022-11-15T07:19:45;16.15;;;9.43;;
29916;SDS011;16786;49.466;11.068;2022-11-15T07:22:30;21.60;;;8.57;;
29916;SDS011;16786;49.466;11.068;2022-11-15T07:25:16;17.85;;;8.50;;
29916;SDS011;16786;49.466;11.068;2022-11-15T07:28:02;12.48;;;8.15;;
29916;SDS011;16786;49.466;11.068;2022-11-15T07:30:48;12.82;;;7.28;;
29916;SDS011;16786;49.466;11.068;2022-11-15T07:33:34;13.77;;;7.57;;
29916;SDS011;16786;49.466;11.068;2022-11-15T07:36:21;12.68;;;7.43;;
29916;SDS011;16786;49.466;11.068;2022-11-15T07:39:07;13.85;;;7.95;;
29916;SDS011;16786;49.466;11.068;2022-11-15T07:41:53;11.43;;;7.13;;
29916;SDS011;16786;49.466;11.068;2022-11-15T07:44:58;11.30;;;7.40;;
29916;SDS011;16786;49.466;11.068;2022-11-15T07:47:47;12.43;;;7.00;;
29916;SDS011;16786;49.466;11.068;2022-11-15T07:50:34;12.23;;;6.78;;
29916;SDS011;16786;49.466;11.068;2022-11-15T07:53:20;13.90;;;8.93;;
29916;SDS011;16786;49.466;11.068;2022-11-15T07:56:06;15.68;;;8.27;;
29916;SDS011;16786;49.466;11.068;2022-11-15T07:58:53;14.02;;;7.53;;
29916;SDS011;16786;49.466;11.068;2022-11-15T08:01:39;13.38;;;8.60;;
29916;SDS011;16786;49.466;11.068;2022-11-15T08:04:25;16.42;;;8.60;;
29916;SDS011;16786;49.466;11.068;2022-11-15T08:07:11;14.18;;;7.97;;
29916;SDS011;16786;49.466;11.068;2022-11-15T08:09:58;12.13;;;7.47;;
29916;SDS011;16786;49.466;11.068;2022-11-15T08:12:46;18.90;;;11.00;;
29916;SDS011;16786;49.466;11.068;2022-11-15T08:15:32;13.95;;;8.00;;
29916;SDS011;16786;49.466;11.068;2022-11-15T08:18:19;13.18;;;7.85;;
29916;SDS011;16786;49.466;11.068;2022-11-15T08:21:05;11.77;;;7.30;;
29916;SDS011;16786;49.466;11.068;2022-11-15T08:23:51;13.38;;;7.25;;
29916;SDS011;16786;49.466;11.068;2022-11-15T08:26:37;13.38;;;7.57;;
29916;SDS011;16786;49.466;11.068;2022-11-15T08:29:23;18.02;;;11.70;;
29916;SDS011;16786;49.466;11.068;2022-11-15T08:32:09;16.90;;;11.10;;
29916;SDS011;16786;49.466;11.068;2022-11-15T08:34:56;13.82;;;9.68;;
29916;SDS011;16786;49.466;11.068;2022-11-15T08:37:41;15.85;;;10.20;;
29916;SDS011;16786;49.466;11.068;2022-11-15T08:40:27;12.82;;;7.63;;
29916;SDS011;16786;49.466;11.068;2022-11-15T08:43:13;13.25;;;8.05;;
29916;SDS011;16786;49.466;11.068;2022-11-15T08:45:59;13.27;;;8.05;;
29916;SDS011;16786;49.466;11.068;2022-11-15T08:48:45;12.95;;;8.52;;
29916;SDS011;16786;49.466;11.068;2022-11-15T08:51:31;13.02;;;9.15;;
29916;SDS011;16786;49.466;11.068;2022-11-15T08:54:17;11.65;;;7.88;;
29916;SDS011;16786;49.466;11.068;2022-11-15T08:57:02;10.75;;;7.30;;
29916;SDS011;16786;49.466;11.068;2022-11-15T08:59:48;10.82;;;7.70;;
29916;SDS011;16786;49.466;11.068;2022-11-15T09:02:34;9.95;;;7.95;;
29916;SDS011;16786;49.466;11.068;2022-11-15T09:05:22;9.43;;;7.00;;
29916;SDS011;16786;49.466;11.068;2022-11-15T09:08:08;10.18;;;6.68;;
29916;SDS011;16786;49.466;11.068;2022-11-15T09:11:15;11.60;;;7.30;;
29916;SDS011;16786;49.466;11.068;2022-11-15T09:14:03;14.20;;;9.45;;
29916;SDS011;16786;49.466;11.068;2022-11-15T09:16:49;14.27;;;8.80;;
29916;SDS011;16786;49.466;11.068;2022-11-15T09:19:35;19.63;;;9.93;;
29916;SDS011;16786;49.466;11.068;2022-11-15T09:22:21;12.85;;;7.72;;
29916;SDS011;16786;49.466;11.068;2022-11-15T09:25:07;8.27;;;6.47;;
29916;SDS011;16786;49.466;11.068;2022-11-15T09:27:55;10.02;;;7.10;;
29916;SDS011;16786;49.466;11.068;2022-11-15T09:30:42;16.52;;;12.55;;
29916;SDS011;16786;49.466;11.068;2022-11-15T09:33:28;13.07;;;9.05;;
29916;SDS011;16786;49.466;11.068;2022-11-15T09:36:15;24.17;;;14.38;;
29916;SDS011;16786;49.466;11.068;2022-11-15T09:39:02;9.82;;;7.35;;
29916;SDS011;16786;49.466;11.068;2022-11-15T09:41:50;11.25;;;6.95;;
29916;SDS011;16786;49.466;11.068;2022-11-15T09:51:24;7.97;;;6.40;;
29916;SDS011;16786;49.466;11.068;2022-11-15T09:54:10;8.10;;;6.80;;
29916;SDS011;16786;49.466;11.068;2022-11-15T09:57:19;9.95;;;7.00;;
29916;SDS011;16786;49.466;11.068;2022-11-15T10:03:23;10.40;;;7.32;;
29916;SDS011;16786;49.466;11.068;2022-11-15T10:06:02;12.93;;;9.75;;
29916;SDS011;16786;49.466;11.068;2022-11-15T10:08:42;12.88;;;10.48;;
29916;SDS011;16786;49.466;11.068;2022-11-15T10:11:14;18.88;;;10.43;;
29916;SDS011;16786;49.466;11.068;2022-11-15T10:14:10;13.17;;;8.30;;
29916;SDS011;16786;49.466;11.068;2022-11-15T10:22:40;9.10;;;6.78;;
29916;SDS011;16786;49.466;11.068;2022-11-15T10:25:27;9.07;;;7.10;;
29916;SDS011;16786;49.466;11.068;2022-11-15T10:30:52;10.63;;;6.80;;
29916;SDS011;16786;49.466;11.068;2022-11-15T10:33:34;8.35;;;7.20;;
29916;SDS011;16786;49.466;11.068;2022-11-15T10:38:55;10.57;;;8.00;;
29916;SDS011;16786;49.466;11.068;2022-11-15T10:46:33;8.65;;;7.35;;
29916;SDS011;16786;49.466;11.068;2022-11-15T10:49:22;8.18;;;7.30;;
29916;SDS011;16786;49.466;11.068;2022-11-15T10:52:15;12.73;;;7.47;;
29916;SDS011;16786;49.466;11.068;2022-11-15T10:54:47;9.23;;;7.13;;
29916;SDS011;16786;49.466;11.068;2022-11-15T10:57:29;8.88;;;6.45;;
29916;SDS011;16786;49.466;11.068;2022-11-15T11:00:06;6.65;;;6.03;;
29916;SDS011;16786;49.466;11.068;2022-11-15T11:02:44;7.80;;;7.00;;
29916;SDS011;16786;49.466;11.068;2022-11-15T11:10:39;7.20;;;6.50;;
29916;SDS011;16786;49.466;11.068;2022-11-15T11:22:02;7.20;;;6.03;;
29916;SDS011;16786;49.466;11.068;2022-11-15T11:30:24;7.60;;;6.10;;
29916;SDS011;16786;49.466;11.068;2022-11-15T11:33:18;7.47;;;6.03;;
29916;SDS011;16786;49.466;11.068;2022-11-15T11:38:56;5.90;;;5.40;;
29916;SDS011;16786;49.466;11.068;2022-11-15T11:47:07;6.15;;;5.55;;
29916;SDS011;16786;49.466;11.068;2022-11-15T11:49:51;6.97;;;5.85;;
29916;SDS011;16786;49.466;11.068;2022-11-15T11:52:37;7.00;;;6.30;;
29916;SDS011;16786;49.466;11.068;2022-11-15T11:55:33;6.65;;;6.05;;
29916;SDS011;16786;49.466;11.068;2022-11-15T11:58:14;7.15;;;5.93;;
29916;SDS011;16786;49.466;11.068;2022-11-15T12:01:31;6.68;;;6.00;;
29916;SDS011;16786;49.466;11.068;2022-11-15T12:17:16;6.00;;;5.50;;
29916;SDS011;16786;49.466;11.068;2022-11-15T12:19:48;7.93;;;5.93;;
29916;SDS011;16786;49.466;11.068;2022-11-15T12:22:20;5.78;;;5.22;;
29916;SDS011;16786;49.466;11.068;2022-11-15T12:25:08;7.30;;;5.03;;
29916;SDS011;16786;49.466;11.068;2022-11-15T12:30:40;6.10;;;5.40;;
29916;SDS011;16786;49.466;11.068;2022-11-15T12:33:28;8.82;;;5.90;;
29916;SDS011;16786;49.466;11.068;2022-11-15T12:35:58;6.35;;;5.45;;
29916;SDS011;16786;49.466;11.068;2022-11-15T12:41:17;6.13;;;5.50;;
29916;SDS011;16786;49.466;11.068;2022-11-15T12:43:46;8.23;;;7.25;;
29916;SDS011;16786;49.466;11.068;2022-11-15T12:49:01;6.78;;;6.07;;
29916;SDS011;16786;49.466;11.068;2022-11-15T13:17:44;6.28;;;5.68;;
29916;SDS011;16786;49.466;11.068;2022-11-15T13:33:31;9.30;;;6.97;;
29916;SDS011;16786;49.466;11.068;2022-11-15T13:36:05;7.47;;;5.75;;
29916;SDS011;16786;49.466;11.068;2022-11-15T13:38:37;8.32;;;6.80;;
29916;SDS011;16786;49.466;11.068;2022-11-15T13:41:19;7.60;;;5.65;;
29916;SDS011;16786;49.466;11.068;2022-11-15T13:43:48;9.75;;;5.90;;
29916;SDS011;16786;49.466;11.068;2022-11-15T13:46:19;6.07;;;5.43;;
29916;SDS011;16786;49.466;11.068;2022-11-15T13:48:52;6.97;;;6.10;;
29916;SDS011;16786;49.466;11.068;2022-11-15T13:59:45;7.40;;;6.05;;
29916;SDS011;16786;49.466;11.068;2022-11-15T14:02:18;14.45;;;9.05;;
29916;SDS011;16786;49.466;11.068;2022-11-15T14:04:53;8.20;;;6.38;;
29916;SDS011;16786;49.466;11.068;2022-11-15T14:07:23;8.75;;;7.53;;
29916;SDS011;16786;49.466;11.068;2022-11-15T14:09:53;8.40;;;6.65;;
29916;SDS011;16786;49.466;11.068;2022-11-15T14:12:26;13.15;;;9.23;;
29916;SDS011;16786;49.466;11.068;2022-11-15T14:14:59;9.68;;;7.22;;
29916;SDS011;16786;49.466;11.068;2022-11-15T14:17:44;15.13;;;11.20;;
29916;SDS011;16786;49.466;11.068;2022-11-15T14:20:20;10.90;;;7.97;;
29916;SDS011;16786;49.466;11.068;2022-11-15T14:22:56;10.80;;;7.05;;
29916;SDS011;16786;49.466;11.068;2022-11-15T14:25:26;8.38;;;6.88;;
29916;SDS011;16786;49.466;11.068;2022-11-15T14:28:28;12.95;;;8.80;;
29916;SDS011;16786;49.466;11.068;2022-11-15T14:30:52;9.98;;;6.53;;
29916;SDS011;16786;49.466;11.068;2022-11-15T14:35:51;8.70;;;6.40;;
29916;SDS011;16786;49.466;11.068;2022-11-15T14:38:19;9.35;;;6.70;;
29916;SDS011;16786;49.466;11.068;2022-11-15T14:40:47;10.68;;;6.88;;
29916;SDS011;16786;49.466;11.068;2022-11-15T14:43:14;10.23;;;6.72;;
29916;SDS011;16786;49.466;11.068;2022-11-15T14:45:42;8.95;;;6.57;;
29916;SDS011;16786;49.466;11.068;2022-11-15T14:48:09;10.20;;;7.50;;
29916;SDS011;16786;49.466;11.068;2022-11-15T14:50:37;10.45;;;7.60;;
29916;SDS011;16786;49.466;11.068;2022-11-15T14:53:05;8.02;;;7.20;;
29916;SDS011;16786;49.466;11.068;2022-11-15T14:55:33;8.65;;;6.60;;
29916;SDS011;16786;49.466;11.068;2022-11-15T14:58:03;12.68;;;7.35;;
29916;SDS011;16786;49.466;11.068;2022-11-15T15:00:31;11.43;;;7.45;;
29916;SDS011;16786;49.466;11.068;2022-11-15T15:03:01;11.27;;;7.80;;
29916;SDS011;16786;49.466;11.068;2022-11-15T15:05:30;10.93;;;7.75;;
29916;SDS011;16786;49.466;11.068;2022-11-15T15:08:05;11.63;;;7.30;;
29916;SDS011;16786;49.466;11.068;2022-11-15T15:10:35;13.30;;;7.10;;
29916;SDS011;16786;49.466;11.068;2022-11-15T15:13:16;8.43;;;6.75;;
29916;SDS011;16786;49.466;11.068;2022-11-15T15:15:50;9.73;;;7.07;;
29916;SDS011;16786;49.466;11.068;2022-11-15T15:18:18;8.43;;;6.57;;
29916;SDS011;16786;49.466;11.068;2022-11-15T15:20:48;10.18;;;6.20;;
29916;SDS011;16786;49.466;11.068;2022-11-15T15:23:23;13.02;;;9.18;;
29916;SDS011;16786;49.466;11.068;2022-11-15T15:25:52;21.50;;;14.00;;
29916;SDS011;16786;49.466;11.068;2022-11-15T15:28:19;17.45;;;10.70;;
29916;SDS011;16786;49.466;11.068;2022-11-15T15:30:47;12.93;;;9.02;;
29916;SDS011;16786;49.466;11.068;2022-11-15T15:33:14;15.35;;;8.32;;
29916;SDS011;16786;49.466;11.068;2022-11-15T15:35:42;13.90;;;8.90;;
29916;SDS011;16786;49.466;11.068;2022-11-15T15:38:12;11.15;;;7.47;;
29916;SDS011;16786;49.466;11.068;2022-11-15T15:40:39;11.30;;;8.02;;
29916;SDS011;16786;49.466;11.068;2022-11-15T15:43:07;12.60;;;8.32;;
29916;SDS011;16786;49.466;11.068;2022-11-15T15:45:39;13.50;;;8.25;;
29916;SDS011;16786;49.466;11.068;2022-11-15T15:48:15;10.73;;;7.47;;
29916;SDS011;16786;49.466;11.068;2022-11-15T15:50:43;19.20;;;11.52;;
29916;SDS011;16786;49.466;11.068;2022-11-15T15:53:11;14.93;;;10.15;;
29916;SDS011;16786;49.466;11.068;2022-11-15T15:55:39;28.58;;;17.17;;
29916;SDS011;16786;49.466;11.068;2022-11-15T15:58:06;17.23;;;12.55;;
29916;SDS011;16786;49.466;11.068;2022-11-15T16:00:34;15.00;;;9.77;;
29916;SDS011;16786;49.466;11.068;2022-11-15T16:03:03;13.32;;;10.02;;
29916;SDS011;16786;49.466;11.068;2022-11-15T16:05:30;13.27;;;9.20;;
29916;SDS011;16786;49.466;11.068;2022-11-15T16:07:58;12.43;;;9.00;;
29916;SDS011;16786;49.466;11.068;2022-11-15T16:10:26;19.10;;;10.25;;
29916;SDS011;16786;49.466;11.068;2022-11-15T16:12:56;19.20;;;10.05;;
29916;SDS011;16786;49.466;11.068;2022-11-15T16:15:25;16.40;;;10.32;;
29916;SDS011;16786;49.466;11.068;2022-11-15T16:17:54;15.95;;;10.18;;
29916;SDS011;16786;49.466;11.068;2022-11-15T16:22:50;13.32;;;9.65;;
29916;SDS011;16786;49.466;11.068;2022-11-15T16:25:17;14.40;;;10.00;;
29916;SDS011;16786;49.466;11.068;2022-11-15T16:27:45;18.13;;;9.80;;
29916;SDS011;16786;49.466;11.068;2022-11-15T16:30:16;14.82;;;9.48;;
29916;SDS011;16786;49.466;11.068;2022-11-15T16:32:47;15.55;;;9.57;;
29916;SDS011;16786;49.466;11.068;2022-11-15T16:35:15;18.27;;;10.18;;
29916;SDS011;16786;49.466;11.068;2022-11-15T16:37:43;13.80;;;9.10;;
29916;SDS011;16786;49.466;11.068;2022-11-15T16:40:17;13.45;;;9.25;;
29916;SDS011;16786;49.466;11.068;2022-11-15T16:42:58;15.25;;;10.02;;
29916;SDS011;16786;49.466;11.068;2022-11-15T16:45:28;16.17;;;10.30;;
29916;SDS011;16786;49.466;11.068;2022-11-15T16:47:57;15.02;;;9.98;;
29916;SDS011;16786;49.466;11.068;2022-11-15T16:50:25;18.92;;;10.48;;
29916;SDS011;16786;49.466;11.068;2022-11-15T16:52:55;16.13;;;9.95;;
29916;SDS011;16786;49.466;11.068;2022-11-15T16:55:25;16.17;;;9.85;;
29916;SDS011;16786;49.466;11.068;2022-11-15T16:57:54;14.98;;;10.50;;
29916;SDS011;16786;49.466;11.068;2022-11-15T17:00:24;14.57;;;9.77;;
29916;SDS011;16786;49.466;11.068;2022-11-15T17:02:52;13.65;;;9.80;;
29916;SDS011;16786;49.466;11.068;2022-11-15T17:05:20;17.45;;;10.38;;
29916;SDS011;16786;49.466;11.068;2022-11-15T17:07:49;16.25;;;10.45;;
29916;SDS011;16786;49.466;11.068;2022-11-15T17:10:21;20.30;;;10.70;;
29916;SDS011;16786;49.466;11.068;2022-11-15T17:12:50;17.92;;;11.50;;
29916;SDS011;16786;49.466;11.068;2022-11-15T17:15:18;21.02;;;11.43;;
29916;SDS011;16786;49.466;11.068;2022-11-15T17:17:49;17.90;;;10.50;;
29916;SDS011;16786;49.466;11.068;2022-11-15T17:20:21;14.32;;;8.98;;
29916;SDS011;16786;49.466;11.068;2022-11-15T17:22:50;21.15;;;10.68;;
29916;SDS011;16786;49.466;11.068;2022-11-15T17:25:18;19.70;;;12.05;;
29916;SDS011;16786;49.466;11.068;2022-11-15T17:27:48;22.25;;;11.80;;
29916;SDS011;16786;49.466;11.068;2022-11-15T17:30:15;19.55;;;11.50;;
29916;SDS011;16786;49.466;11.068;2022-11-15T17:32:44;21.38;;;12.02;;
29916;SDS011;16786;49.466;11.068;2022-11-15T17:35:13;16.23;;;10.93;;
29916;SDS011;16786;49.466;11.068;2022-11-15T17:37:41;16.30;;;11.32;;
29916;SDS011;16786;49.466;11.068;2022-11-15T17:40:09;16.75;;;11.55;;
29916;SDS011;16786;49.466;11.068;2022-11-15T17:42:39;22.48;;;10.85;;
29916;SDS011;16786;49.466;11.068;2022-11-15T17:45:08;15.43;;;10.55;;
29916;SDS011;16786;49.466;11.068;2022-11-15T17:47:36;17.58;;;10.88;;
29916;SDS011;16786;49.466;11.068;2022-11-15T17:50:04;13.95;;;10.25;;
29916;SDS011;16786;49.466;11.068;2022-11-15T17:52:31;18.00;;;10.65;;
29916;SDS011;16786;49.466;11.068;2022-11-15T17:54:59;18.48;;;10.07;;
29916;SDS011;16786;49.466;11.068;2022-11-15T17:57:26;15.30;;;10.43;;
29916;SDS011;16786;49.466;11.068;2022-11-15T17:59:54;15.80;;;10.98;;
29916;SDS011;16786;49.466;11.068;2022-11-15T18:02:21;16.25;;;10.23;;
29916;SDS011;16786;49.466;11.068;2022-11-15T18:04:48;18.23;;;10.18;;
29916;SDS011;16786;49.466;11.068;2022-11-15T18:07:16;16.00;;;10.70;;
29916;SDS011;16786;49.466;11.068;2022-11-15T18:09:43;14.90;;;10.50;;
29916;SDS011;16786;49.466;11.068;2022-11-15T18:12:11;16.08;;;10.95;;
29916;SDS011;16786;49.466;11.068;2022-11-15T18:14:39;18.05;;;10.77;;
29916;SDS011;16786;49.466;11.068;2022-11-15T18:17:06;17.75;;;11.88;;
29916;SDS011;16786;49.466;11.068;2022-11-15T18:19:33;18.38;;;11.88;;
29916;SDS011;16786;49.466;11.068;2022-11-15T18:22:01;20.83;;;12.80;;
29916;SDS011;16786;49.466;11.068;2022-11-15T18:24:34;21.48;;;13.40;;
29916;SDS011;16786;49.466;11.068;2022-11-15T18:27:04;19.55;;;12.55;;
29916;SDS011;16786;49.466;11.068;2022-11-15T18:29:32;20.33;;;12.45;;